sensor_id;sensor_type;location;lat;lon;timestamp;P1;durP1;ratioP1;P2;durP2;ratioP2
5616;SDS011;2830;50.656;7.568;2023-03-13T00:01:10;23.60;;;4.33;;
5616;SDS011;2830;50.656;7.568;2023-03-13T00:03:48;25.67;;;3.50;;
5616;SDS011;2830;50.656;7.568;2023-03-13T00:06:16;28.37;;;4.00;;
5616;SDS011;2830;50.656;7.568;2023-03-13T00:08:43;18.40;;;3.63;;
5616;SDS011;2830;50.656;7.568;2023-03-13T00:11:10;14.80;;;3.47;;
5616;SDS011;2830;50.656;7.568;2023-03-13T00:13:38;20.97;;;3.70;;
5616;SDS011;2830;50.656;7.568;2023-03-13T00:16:07;29.23;;;5.13;;
5616;SDS011;2830;50.656;7.568;2023-03-13T00:18:36;26.10;;;4.20;;
5616;SDS011;2830;50.656;7.568;2023-03-13T00:21:04;23.67;;;4.57;;
5616;SDS011;2830;50.656;7.568;2023-03-13T00:23:32;31.03;;;4.40;;
5616;SDS011;2830;50.656;7.568;2023-03-13T00:26:01;21.00;;;4.27;;
5616;SDS011;2830;50.656;7.568;2023-03-13T00:28:30;26.33;;;4.00;;
5616;SDS011;2830;50.656;7.568;2023-03-13T00:31:05;34.27;;;4.70;;
5616;SDS011;2830;50.656;7.568;2023-03-13T00:33:34;19.53;;;4.00;;
5616;SDS011;2830;50.656;7.568;2023-03-13T00:36:03;24.50;;;4.17;;
5616;SDS011;2830;50.656;7.568;2023-03-13T00:38:34;19.57;;;3.63;;
5616;SDS011;2830;50.656;7.568;2023-03-13T00:41:03;26.87;;;5.60;;
5616;SDS011;2830;50.656;7.568;2023-03-13T00:43:37;17.80;;;4.30;;
5616;SDS011;2830;50.656;7.568;2023-03-13T00:46:07;22.50;;;3.80;;
5616;SDS011;2830;50.656;7.568;2023-03-13T00:48:34;21.10;;;3.37;;
5616;SDS011;2830;50.656;7.568;2023-03-13T00:51:01;16.60;;;3.53;;
5616;SDS011;2830;50.656;7.568;2023-03-13T00:53:29;26.30;;;5.13;;
5616;SDS011;2830;50.656;7.568;2023-03-13T00:56:00;14.63;;;3.60;;
5616;SDS011;2830;50.656;7.568;2023-03-13T00:58:33;24.53;;;4.10;;
5616;SDS011;2830;50.656;7.568;2023-03-13T01:01:17;24.80;;;4.60;;
5616;SDS011;2830;50.656;7.568;2023-03-13T01:03:49;28.63;;;3.80;;
5616;SDS011;2830;50.656;7.568;2023-03-13T01:06:19;21.63;;;4.70;;
5616;SDS011;2830;50.656;7.568;2023-03-13T01:08:47;20.73;;;3.67;;
5616;SDS011;2830;50.656;7.568;2023-03-13T01:11:16;23.20;;;5.20;;
5616;SDS011;2830;50.656;7.568;2023-03-13T01:13:45;19.30;;;3.90;;
5616;SDS011;2830;50.656;7.568;2023-03-13T01:16:16;24.07;;;4.40;;
5616;SDS011;2830;50.656;7.568;2023-03-13T01:18:46;20.70;;;3.93;;
5616;SDS011;2830;50.656;7.568;2023-03-13T01:21:15;14.47;;;3.30;;
5616;SDS011;2830;50.656;7.568;2023-03-13T01:23:44;21.73;;;3.47;;
5616;SDS011;2830;50.656;7.568;2023-03-13T01:26:11;23.00;;;4.20;;
5616;SDS011;2830;50.656;7.568;2023-03-13T01:28:38;22.00;;;5.00;;
5616;SDS011;2830;50.656;7.568;2023-03-13T01:31:18;24.30;;;3.73;;
5616;SDS011;2830;50.656;7.568;2023-03-13T01:33:51;31.43;;;4.47;;
5616;SDS011;2830;50.656;7.568;2023-03-13T01:36:20;28.30;;;4.80;;
5616;SDS011;2830;50.656;7.568;2023-03-13T01:38:48;20.60;;;5.33;;
5616;SDS011;2830;50.656;7.568;2023-03-13T01:41:16;25.57;;;4.43;;
5616;SDS011;2830;50.656;7.568;2023-03-13T01:43:44;29.00;;;4.73;;
5616;SDS011;2830;50.656;7.568;2023-03-13T01:51:28;22.43;;;4.40;;
5616;SDS011;2830;50.656;7.568;2023-03-13T01:59:32;27.43;;;3.07;;
5616;SDS011;2830;50.656;7.568;2023-03-13T02:02:05;22.90;;;4.07;;
5616;SDS011;2830;50.656;7.568;2023-03-13T02:04:37;28.17;;;4.47;;
5616;SDS011;2830;50.656;7.568;2023-03-13T02:07:10;25.60;;;4.90;;
5616;SDS011;2830;50.656;7.568;2023-03-13T02:09:42;20.93;;;4.40;;
5616;SDS011;2830;50.656;7.568;2023-03-13T02:12:15;28.47;;;3.60;;
5616;SDS011;2830;50.656;7.568;2023-03-13T02:14:47;23.03;;;2.90;;
5616;SDS011;2830;50.656;7.568;2023-03-13T02:17:16;26.00;;;3.73;;
5616;SDS011;2830;50.656;7.568;2023-03-13T02:19:47;29.13;;;3.47;;
5616;SDS011;2830;50.656;7.568;2023-03-13T02:22:30;19.97;;;2.90;;
5616;SDS011;2830;50.656;7.568;2023-03-13T02:25:08;20.33;;;3.87;;
5616;SDS011;2830;50.656;7.568;2023-03-13T02:27:46;19.77;;;3.50;;
5616;SDS011;2830;50.656;7.568;2023-03-13T02:30:16;23.60;;;4.03;;
5616;SDS011;2830;50.656;7.568;2023-03-13T02:32:42;22.97;;;3.47;;
5616;SDS011;2830;50.656;7.568;2023-03-13T02:35:12;25.03;;;3.13;;
5616;SDS011;2830;50.656;7.568;2023-03-13T02:37:42;21.80;;;3.30;;
5616;SDS011;2830;50.656;7.568;2023-03-13T02:40:13;18.70;;;2.97;;
5616;SDS011;2830;50.656;7.568;2023-03-13T02:42:42;17.50;;;3.40;;
5616;SDS011;2830;50.656;7.568;2023-03-13T02:45:14;17.43;;;3.53;;
5616;SDS011;2830;50.656;7.568;2023-03-13T02:47:42;26.83;;;3.60;;
5616;SDS011;2830;50.656;7.568;2023-03-13T02:50:09;20.57;;;3.17;;
5616;SDS011;2830;50.656;7.568;2023-03-13T02:52:39;21.10;;;3.27;;
5616;SDS011;2830;50.656;7.568;2023-03-13T02:55:11;18.13;;;3.70;;
5616;SDS011;2830;50.656;7.568;2023-03-13T02:57:47;16.93;;;2.70;;
5616;SDS011;2830;50.656;7.568;2023-03-13T03:00:15;19.73;;;2.73;;
5616;SDS011;2830;50.656;7.568;2023-03-13T03:02:43;16.90;;;2.90;;
5616;SDS011;2830;50.656;7.568;2023-03-13T03:05:11;16.30;;;2.17;;
5616;SDS011;2830;50.656;7.568;2023-03-13T03:07:38;17.53;;;3.30;;
5616;SDS011;2830;50.656;7.568;2023-03-13T03:10:05;18.67;;;3.47;;
5616;SDS011;2830;50.656;7.568;2023-03-13T03:12:32;24.30;;;3.23;;
5616;SDS011;2830;50.656;7.568;2023-03-13T03:14:58;18.53;;;3.10;;
5616;SDS011;2830;50.656;7.568;2023-03-13T03:17:25;22.40;;;2.73;;
5616;SDS011;2830;50.656;7.568;2023-03-13T03:19:52;18.70;;;2.07;;
5616;SDS011;2830;50.656;7.568;2023-03-13T03:22:19;19.90;;;2.50;;
5616;SDS011;2830;50.656;7.568;2023-03-13T03:24:45;19.00;;;2.70;;
5616;SDS011;2830;50.656;7.568;2023-03-13T03:27:12;17.27;;;4.03;;
5616;SDS011;2830;50.656;7.568;2023-03-13T03:29:38;18.03;;;2.40;;
5616;SDS011;2830;50.656;7.568;2023-03-13T03:32:05;15.60;;;2.80;;
5616;SDS011;2830;50.656;7.568;2023-03-13T03:34:32;13.40;;;2.03;;
5616;SDS011;2830;50.656;7.568;2023-03-13T03:36:59;15.10;;;2.50;;
5616;SDS011;2830;50.656;7.568;2023-03-13T03:39:26;19.23;;;2.90;;
5616;SDS011;2830;50.656;7.568;2023-03-13T03:41:53;17.17;;;2.63;;
5616;SDS011;2830;50.656;7.568;2023-03-13T03:44:19;15.63;;;2.67;;
5616;SDS011;2830;50.656;7.568;2023-03-13T03:46:46;16.13;;;2.20;;
5616;SDS011;2830;50.656;7.568;2023-03-13T03:49:13;22.87;;;2.47;;
5616;SDS011;2830;50.656;7.568;2023-03-13T03:51:39;16.40;;;2.40;;
5616;SDS011;2830;50.656;7.568;2023-03-13T03:54:06;12.63;;;2.17;;
5616;SDS011;2830;50.656;7.568;2023-03-13T03:56:33;14.70;;;2.07;;
5616;SDS011;2830;50.656;7.568;2023-03-13T03:58:59;14.13;;;1.93;;
5616;SDS011;2830;50.656;7.568;2023-03-13T04:01:26;14.00;;;1.97;;
5616;SDS011;2830;50.656;7.568;2023-03-13T04:03:53;13.87;;;1.80;;
5616;SDS011;2830;50.656;7.568;2023-03-13T04:06:19;11.77;;;1.93;;
5616;SDS011;2830;50.656;7.568;2023-03-13T04:08:46;16.80;;;2.00;;
5616;SDS011;2830;50.656;7.568;2023-03-13T04:11:13;12.43;;;2.10;;
5616;SDS011;2830;50.656;7.568;2023-03-13T04:13:39;17.73;;;1.77;;
5616;SDS011;2830;50.656;7.568;2023-03-13T04:16:06;12.10;;;1.83;;
5616;SDS011;2830;50.656;7.568;2023-03-13T04:18:34;11.50;;;1.70;;
5616;SDS011;2830;50.656;7.568;2023-03-13T04:21:01;14.10;;;1.83;;
5616;SDS011;2830;50.656;7.568;2023-03-13T04:23:29;9.97;;;1.30;;
5616;SDS011;2830;50.656;7.568;2023-03-13T04:25:55;11.10;;;1.70;;
5616;SDS011;2830;50.656;7.568;2023-03-13T04:28:22;11.13;;;1.30;;
5616;SDS011;2830;50.656;7.568;2023-03-13T04:30:49;10.37;;;1.33;;
5616;SDS011;2830;50.656;7.568;2023-03-13T04:33:15;17.23;;;1.67;;
5616;SDS011;2830;50.656;7.568;2023-03-13T04:35:42;11.60;;;1.13;;
5616;SDS011;2830;50.656;7.568;2023-03-13T04:38:09;10.20;;;1.37;;
5616;SDS011;2830;50.656;7.568;2023-03-13T04:40:36;14.00;;;1.53;;
5616;SDS011;2830;50.656;7.568;2023-03-13T04:43:02;16.27;;;1.40;;
5616;SDS011;2830;50.656;7.568;2023-03-13T04:45:29;11.17;;;1.30;;
5616;SDS011;2830;50.656;7.568;2023-03-13T04:47:56;11.47;;;1.80;;
5616;SDS011;2830;50.656;7.568;2023-03-13T04:50:22;10.20;;;0.83;;
5616;SDS011;2830;50.656;7.568;2023-03-13T04:52:49;9.90;;;1.30;;
5616;SDS011;2830;50.656;7.568;2023-03-13T04:55:16;11.20;;;1.00;;
5616;SDS011;2830;50.656;7.568;2023-03-13T04:57:42;8.90;;;0.73;;
5616;SDS011;2830;50.656;7.568;2023-03-13T05:00:09;10.70;;;1.10;;
5616;SDS011;2830;50.656;7.568;2023-03-13T05:02:37;9.93;;;1.13;;
5616;SDS011;2830;50.656;7.568;2023-03-13T05:05:04;10.27;;;1.00;;
5616;SDS011;2830;50.656;7.568;2023-03-13T05:07:31;13.90;;;1.07;;
5616;SDS011;2830;50.656;7.568;2023-03-13T05:09:58;12.03;;;1.77;;
5616;SDS011;2830;50.656;7.568;2023-03-13T05:12:24;11.40;;;1.20;;
5616;SDS011;2830;50.656;7.568;2023-03-13T05:14:51;9.10;;;0.70;;
5616;SDS011;2830;50.656;7.568;2023-03-13T05:17:18;10.03;;;0.90;;
5616;SDS011;2830;50.656;7.568;2023-03-13T05:19:45;10.10;;;1.20;;
5616;SDS011;2830;50.656;7.568;2023-03-13T05:22:12;9.30;;;0.90;;
5616;SDS011;2830;50.656;7.568;2023-03-13T05:24:38;10.00;;;1.10;;
5616;SDS011;2830;50.656;7.568;2023-03-13T05:27:07;9.60;;;0.70;;
5616;SDS011;2830;50.656;7.568;2023-03-13T05:29:33;12.43;;;0.80;;
5616;SDS011;2830;50.656;7.568;2023-03-13T05:32:00;9.73;;;0.80;;
5616;SDS011;2830;50.656;7.568;2023-03-13T05:34:27;9.87;;;0.83;;
5616;SDS011;2830;50.656;7.568;2023-03-13T05:36:53;9.43;;;0.77;;
5616;SDS011;2830;50.656;7.568;2023-03-13T05:39:20;9.20;;;0.90;;
5616;SDS011;2830;50.656;7.568;2023-03-13T05:41:47;10.50;;;0.70;;
5616;SDS011;2830;50.656;7.568;2023-03-13T05:44:13;9.30;;;0.70;;
5616;SDS011;2830;50.656;7.568;2023-03-13T05:46:40;11.83;;;0.80;;
5616;SDS011;2830;50.656;7.568;2023-03-13T05:49:07;9.30;;;0.60;;
5616;SDS011;2830;50.656;7.568;2023-03-13T05:51:33;17.63;;;1.60;;
5616;SDS011;2830;50.656;7.568;2023-03-13T05:54:00;9.43;;;0.60;;
5616;SDS011;2830;50.656;7.568;2023-03-13T05:56:27;9.40;;;0.50;;
5616;SDS011;2830;50.656;7.568;2023-03-13T05:58:53;9.40;;;0.80;;
5616;SDS011;2830;50.656;7.568;2023-03-13T06:01:20;9.90;;;0.80;;
5616;SDS011;2830;50.656;7.568;2023-03-13T06:03:47;10.20;;;1.10;;
5616;SDS011;2830;50.656;7.568;2023-03-13T06:06:14;9.37;;;0.70;;
5616;SDS011;2830;50.656;7.568;2023-03-13T06:08:40;10.77;;;0.83;;
5616;SDS011;2830;50.656;7.568;2023-03-13T06:11:07;11.80;;;2.20;;
5616;SDS011;2830;50.656;7.568;2023-03-13T06:13:34;9.20;;;0.90;;
5616;SDS011;2830;50.656;7.568;2023-03-13T06:16:00;9.43;;;0.90;;
5616;SDS011;2830;50.656;7.568;2023-03-13T06:18:27;9.17;;;0.70;;
5616;SDS011;2830;50.656;7.568;2023-03-13T06:20:55;8.97;;;0.50;;
5616;SDS011;2830;50.656;7.568;2023-03-13T06:23:24;9.47;;;1.10;;
5616;SDS011;2830;50.656;7.568;2023-03-13T06:25:51;9.27;;;0.80;;
5616;SDS011;2830;50.656;7.568;2023-03-13T06:28:18;9.13;;;0.77;;
5616;SDS011;2830;50.656;7.568;2023-03-13T06:30:45;9.77;;;1.23;;
5616;SDS011;2830;50.656;7.568;2023-03-13T06:33:12;8.87;;;0.90;;
5616;SDS011;2830;50.656;7.568;2023-03-13T06:35:39;8.87;;;0.70;;
5616;SDS011;2830;50.656;7.568;2023-03-13T06:38:21;8.73;;;0.63;;
5616;SDS011;2830;50.656;7.568;2023-03-13T06:40:47;8.90;;;0.70;;
5616;SDS011;2830;50.656;7.568;2023-03-13T06:43:14;10.77;;;1.07;;
5616;SDS011;2830;50.656;7.568;2023-03-13T06:45:41;8.90;;;1.03;;
5616;SDS011;2830;50.656;7.568;2023-03-13T06:48:08;8.47;;;0.70;;
5616;SDS011;2830;50.656;7.568;2023-03-13T06:50:36;8.60;;;0.60;;
5616;SDS011;2830;50.656;7.568;2023-03-13T06:53:04;8.70;;;0.80;;
5616;SDS011;2830;50.656;7.568;2023-03-13T06:55:32;9.33;;;0.77;;
5616;SDS011;2830;50.656;7.568;2023-03-13T06:57:59;9.50;;;1.53;;
5616;SDS011;2830;50.656;7.568;2023-03-13T07:00:25;9.33;;;0.73;;
5616;SDS011;2830;50.656;7.568;2023-03-13T07:02:52;9.20;;;0.80;;
5616;SDS011;2830;50.656;7.568;2023-03-13T07:05:19;9.10;;;0.93;;
5616;SDS011;2830;50.656;7.568;2023-03-13T07:07:45;9.03;;;0.83;;
5616;SDS011;2830;50.656;7.568;2023-03-13T07:10:12;8.70;;;0.63;;
5616;SDS011;2830;50.656;7.568;2023-03-13T07:12:40;8.70;;;0.70;;
5616;SDS011;2830;50.656;7.568;2023-03-13T07:15:07;8.67;;;0.70;;
5616;SDS011;2830;50.656;7.568;2023-03-13T07:17:34;13.20;;;0.90;;
5616;SDS011;2830;50.656;7.568;2023-03-13T07:20:01;8.80;;;0.90;;
5616;SDS011;2830;50.656;7.568;2023-03-13T07:22:30;8.53;;;0.63;;
5616;SDS011;2830;50.656;7.568;2023-03-13T07:24:57;10.63;;;1.60;;
5616;SDS011;2830;50.656;7.568;2023-03-13T07:27:23;8.87;;;0.80;;
5616;SDS011;2830;50.656;7.568;2023-03-13T07:29:50;9.10;;;0.90;;
5616;SDS011;2830;50.656;7.568;2023-03-13T07:32:17;9.07;;;0.87;;
5616;SDS011;2830;50.656;7.568;2023-03-13T07:34:44;9.00;;;0.77;;
5616;SDS011;2830;50.656;7.568;2023-03-13T07:37:11;9.83;;;0.90;;
5616;SDS011;2830;50.656;7.568;2023-03-13T07:39:38;9.20;;;0.90;;
5616;SDS011;2830;50.656;7.568;2023-03-13T07:42:05;10.63;;;1.40;;
5616;SDS011;2830;50.656;7.568;2023-03-13T07:44:33;9.93;;;1.07;;
5616;SDS011;2830;50.656;7.568;2023-03-13T07:46:59;9.77;;;1.10;;
5616;SDS011;2830;50.656;7.568;2023-03-13T07:49:26;10.30;;;1.27;;
5616;SDS011;2830;50.656;7.568;2023-03-13T07:51:53;9.57;;;0.90;;
5616;SDS011;2830;50.656;7.568;2023-03-13T07:54:20;9.03;;;1.10;;
5616;SDS011;2830;50.656;7.568;2023-03-13T07:56:46;12.00;;;1.60;;
5616;SDS011;2830;50.656;7.568;2023-03-13T07:59:14;10.27;;;1.63;;
5616;SDS011;2830;50.656;7.568;2023-03-13T08:01:40;10.70;;;2.07;;
5616;SDS011;2830;50.656;7.568;2023-03-13T08:04:08;11.03;;;1.70;;
5616;SDS011;2830;50.656;7.568;2023-03-13T08:06:38;11.33;;;1.40;;
5616;SDS011;2830;50.656;7.568;2023-03-13T08:09:06;11.17;;;2.07;;
5616;SDS011;2830;50.656;7.568;2023-03-13T08:11:33;10.90;;;1.60;;
5616;SDS011;2830;50.656;7.568;2023-03-13T08:14:00;11.40;;;2.23;;
5616;SDS011;2830;50.656;7.568;2023-03-13T08:16:31;10.43;;;1.90;;
5616;SDS011;2830;50.656;7.568;2023-03-13T08:19:00;9.50;;;1.70;;
5616;SDS011;2830;50.656;7.568;2023-03-13T08:21:30;11.73;;;2.13;;
5616;SDS011;2830;50.656;7.568;2023-03-13T08:24:00;10.47;;;1.57;;
5616;SDS011;2830;50.656;7.568;2023-03-13T08:26:31;11.37;;;2.60;;
5616;SDS011;2830;50.656;7.568;2023-03-13T08:29:00;13.50;;;2.83;;
5616;SDS011;2830;50.656;7.568;2023-03-13T08:34:13;11.47;;;2.07;;
5616;SDS011;2830;50.656;7.568;2023-03-13T08:36:41;10.67;;;1.87;;
5616;SDS011;2830;50.656;7.568;2023-03-13T08:39:10;11.70;;;1.93;;
5616;SDS011;2830;50.656;7.568;2023-03-13T08:41:44;10.00;;;1.60;;
5616;SDS011;2830;50.656;7.568;2023-03-13T08:44:12;12.60;;;2.07;;
5616;SDS011;2830;50.656;7.568;2023-03-13T08:46:40;13.93;;;2.40;;
5616;SDS011;2830;50.656;7.568;2023-03-13T08:49:09;13.33;;;3.17;;
5616;SDS011;2830;50.656;7.568;2023-03-13T08:51:37;10.13;;;1.50;;
5616;SDS011;2830;50.656;7.568;2023-03-13T08:54:04;10.70;;;1.97;;
5616;SDS011;2830;50.656;7.568;2023-03-13T08:56:31;12.83;;;2.07;;
5616;SDS011;2830;50.656;7.568;2023-03-13T08:59:00;9.63;;;1.90;;
5616;SDS011;2830;50.656;7.568;2023-03-13T09:01:30;14.00;;;2.40;;
5616;SDS011;2830;50.656;7.568;2023-03-13T09:03:57;11.43;;;2.13;;
5616;SDS011;2830;50.656;7.568;2023-03-13T09:06:29;11.80;;;2.20;;
5616;SDS011;2830;50.656;7.568;2023-03-13T09:08:57;13.20;;;2.70;;
5616;SDS011;2830;50.656;7.568;2023-03-13T09:11:24;10.73;;;2.73;;
5616;SDS011;2830;50.656;7.568;2023-03-13T09:13:51;9.20;;;1.83;;
5616;SDS011;2830;50.656;7.568;2023-03-13T09:16:24;12.10;;;1.87;;
5616;SDS011;2830;50.656;7.568;2023-03-13T09:18:52;12.73;;;2.03;;
5616;SDS011;2830;50.656;7.568;2023-03-13T09:21:21;10.57;;;1.90;;
5616;SDS011;2830;50.656;7.568;2023-03-13T09:23:50;10.90;;;2.40;;
5616;SDS011;2830;50.656;7.568;2023-03-13T09:26:17;10.90;;;2.00;;
5616;SDS011;2830;50.656;7.568;2023-03-13T09:28:48;9.97;;;2.00;;
5616;SDS011;2830;50.656;7.568;2023-03-13T09:31:16;13.30;;;2.20;;
5616;SDS011;2830;50.656;7.568;2023-03-13T09:33:45;11.63;;;2.23;;
5616;SDS011;2830;50.656;7.568;2023-03-13T09:36:12;11.80;;;2.50;;
5616;SDS011;2830;50.656;7.568;2023-03-13T09:38:40;10.40;;;1.63;;
5616;SDS011;2830;50.656;7.568;2023-03-13T09:43:47;10.77;;;1.93;;
5616;SDS011;2830;50.656;7.568;2023-03-13T09:46:32;10.07;;;2.00;;
5616;SDS011;2830;50.656;7.568;2023-03-13T09:49:24;13.77;;;2.10;;
5616;SDS011;2830;50.656;7.568;2023-03-13T09:52:09;10.60;;;1.87;;
5616;SDS011;2830;50.656;7.568;2023-03-13T09:54:48;11.60;;;2.27;;
5616;SDS011;2830;50.656;7.568;2023-03-13T09:57:35;9.83;;;2.17;;
5616;SDS011;2830;50.656;7.568;2023-03-13T10:02:50;10.27;;;2.03;;
5616;SDS011;2830;50.656;7.568;2023-03-13T10:05:26;10.50;;;2.00;;
5616;SDS011;2830;50.656;7.568;2023-03-13T10:07:55;12.43;;;2.20;;
5616;SDS011;2830;50.656;7.568;2023-03-13T10:10:29;17.10;;;4.90;;
5616;SDS011;2830;50.656;7.568;2023-03-13T10:16:05;13.27;;;4.00;;
5616;SDS011;2830;50.656;7.568;2023-03-13T10:18:35;13.00;;;2.90;;
5616;SDS011;2830;50.656;7.568;2023-03-13T10:21:13;12.90;;;3.30;;
5616;SDS011;2830;50.656;7.568;2023-03-13T10:23:56;14.97;;;2.93;;
5616;SDS011;2830;50.656;7.568;2023-03-13T10:26:28;12.50;;;4.07;;
5616;SDS011;2830;50.656;7.568;2023-03-13T10:31:59;12.43;;;3.43;;
5616;SDS011;2830;50.656;7.568;2023-03-13T10:34:29;11.80;;;2.93;;
5616;SDS011;2830;50.656;7.568;2023-03-13T10:37:15;12.83;;;3.00;;
5616;SDS011;2830;50.656;7.568;2023-03-13T10:39:45;15.77;;;5.20;;
5616;SDS011;2830;50.656;7.568;2023-03-13T10:42:29;15.03;;;4.23;;
5616;SDS011;2830;50.656;7.568;2023-03-13T10:44:59;14.97;;;4.30;;
5616;SDS011;2830;50.656;7.568;2023-03-13T10:47:31;12.83;;;3.03;;
5616;SDS011;2830;50.656;7.568;2023-03-13T10:49:59;12.00;;;3.00;;
5616;SDS011;2830;50.656;7.568;2023-03-13T10:52:34;13.53;;;4.03;;
5616;SDS011;2830;50.656;7.568;2023-03-13T10:55:09;11.47;;;2.80;;
5616;SDS011;2830;50.656;7.568;2023-03-13T10:58:00;13.53;;;3.10;;
5616;SDS011;2830;50.656;7.568;2023-03-13T11:00:36;11.37;;;2.80;;
5616;SDS011;2830;50.656;7.568;2023-03-13T11:03:04;11.10;;;2.67;;
5616;SDS011;2830;50.656;7.568;2023-03-13T11:05:40;11.50;;;2.80;;
5616;SDS011;2830;50.656;7.568;2023-03-13T11:08:24;12.63;;;2.80;;
5616;SDS011;2830;50.656;7.568;2023-03-13T11:16:05;12.53;;;3.23;;
5616;SDS011;2830;50.656;7.568;2023-03-13T11:24:40;12.17;;;2.90;;
5616;SDS011;2830;50.656;7.568;2023-03-13T11:27:30;11.67;;;2.67;;
5616;SDS011;2830;50.656;7.568;2023-03-13T11:30:31;11.73;;;3.47;;
5616;SDS011;2830;50.656;7.568;2023-03-13T11:36:20;12.80;;;2.87;;
5616;SDS011;2830;50.656;7.568;2023-03-13T11:38:52;14.17;;;2.83;;
5616;SDS011;2830;50.656;7.568;2023-03-13T11:44:25;15.57;;;3.20;;
5616;SDS011;2830;50.656;7.568;2023-03-13T11:47:15;12.50;;;3.27;;
5616;SDS011;2830;50.656;7.568;2023-03-13T11:52:50;13.53;;;2.87;;
5616;SDS011;2830;50.656;7.568;2023-03-13T11:58:31;14.00;;;3.83;;
5616;SDS011;2830;50.656;7.568;2023-03-13T12:01:27;12.43;;;3.33;;
5616;SDS011;2830;50.656;7.568;2023-03-13T12:09:27;14.00;;;3.30;;
5616;SDS011;2830;50.656;7.568;2023-03-13T12:14:36;13.70;;;3.13;;
5616;SDS011;2830;50.656;7.568;2023-03-13T12:17:11;12.17;;;3.10;;
5616;SDS011;2830;50.656;7.568;2023-03-13T12:19:57;11.57;;;2.80;;
5616;SDS011;2830;50.656;7.568;2023-03-13T12:23:02;15.33;;;3.30;;
5616;SDS011;2830;50.656;7.568;2023-03-13T12:25:52;10.83;;;2.67;;
5616;SDS011;2830;50.656;7.568;2023-03-13T12:31:08;15.87;;;2.40;;
5616;SDS011;2830;50.656;7.568;2023-03-13T12:36:50;16.70;;;2.90;;
5616;SDS011;2830;50.656;7.568;2023-03-13T12:39:42;12.37;;;2.53;;
5616;SDS011;2830;50.656;7.568;2023-03-13T12:42:17;11.20;;;2.37;;
5616;SDS011;2830;50.656;7.568;2023-03-13T12:44:48;13.77;;;2.00;;
5616;SDS011;2830;50.656;7.568;2023-03-13T12:47:22;12.57;;;2.27;;
5616;SDS011;2830;50.656;7.568;2023-03-13T12:50:22;11.63;;;2.23;;
5616;SDS011;2830;50.656;7.568;2023-03-13T13:01:16;12.30;;;2.33;;
5616;SDS011;2830;50.656;7.568;2023-03-13T13:03:59;11.17;;;2.20;;
5616;SDS011;2830;50.656;7.568;2023-03-13T13:12:38;13.73;;;2.23;;
5616;SDS011;2830;50.656;7.568;2023-03-13T13:17:49;10.90;;;2.57;;
5616;SDS011;2830;50.656;7.568;2023-03-13T13:20:36;13.13;;;2.13;;
5616;SDS011;2830;50.656;7.568;2023-03-13T13:23:20;11.43;;;2.03;;
5616;SDS011;2830;50.656;7.568;2023-03-13T13:25:51;11.17;;;2.40;;
5616;SDS011;2830;50.656;7.568;2023-03-13T13:28:23;13.13;;;2.60;;
5616;SDS011;2830;50.656;7.568;2023-03-13T13:30:53;11.43;;;2.63;;
5616;SDS011;2830;50.656;7.568;2023-03-13T13:38:51;12.97;;;2.33;;
5616;SDS011;2830;50.656;7.568;2023-03-13T13:41:24;11.73;;;2.37;;
5616;SDS011;2830;50.656;7.568;2023-03-13T13:46:52;9.70;;;1.47;;
5616;SDS011;2830;50.656;7.568;2023-03-13T13:49:22;10.67;;;2.00;;
5616;SDS011;2830;50.656;7.568;2023-03-13T13:57:20;12.37;;;1.70;;
5616;SDS011;2830;50.656;7.568;2023-03-13T14:00:15;13.03;;;2.53;;
5616;SDS011;2830;50.656;7.568;2023-03-13T14:02:49;10.10;;;1.60;;
5616;SDS011;2830;50.656;7.568;2023-03-13T14:05:21;11.87;;;1.90;;
5616;SDS011;2830;50.656;7.568;2023-03-13T14:08:02;10.30;;;1.50;;
5616;SDS011;2830;50.656;7.568;2023-03-13T14:10:40;9.80;;;1.30;;
5616;SDS011;2830;50.656;7.568;2023-03-13T14:13:15;12.10;;;1.60;;
5616;SDS011;2830;50.656;7.568;2023-03-13T14:15:51;11.33;;;1.87;;
5616;SDS011;2830;50.656;7.568;2023-03-13T14:18:28;10.50;;;1.60;;
5616;SDS011;2830;50.656;7.568;2023-03-13T14:23:36;9.97;;;1.10;;
5616;SDS011;2830;50.656;7.568;2023-03-13T14:26:18;9.87;;;1.17;;
5616;SDS011;2830;50.656;7.568;2023-03-13T14:28:53;9.50;;;1.00;;
5616;SDS011;2830;50.656;7.568;2023-03-13T14:31:31;10.00;;;1.33;;
5616;SDS011;2830;50.656;7.568;2023-03-13T14:34:03;10.50;;;1.43;;
5616;SDS011;2830;50.656;7.568;2023-03-13T14:36:50;9.13;;;1.10;;
5616;SDS011;2830;50.656;7.568;2023-03-13T14:42:08;11.30;;;0.97;;
5616;SDS011;2830;50.656;7.568;2023-03-13T14:44:37;9.20;;;0.80;;
5616;SDS011;2830;50.656;7.568;2023-03-13T14:47:22;9.20;;;0.70;;
5616;SDS011;2830;50.656;7.568;2023-03-13T14:49:59;12.03;;;3.23;;
5616;SDS011;2830;50.656;7.568;2023-03-13T14:52:35;9.17;;;0.90;;
5616;SDS011;2830;50.656;7.568;2023-03-13T14:55:05;8.97;;;0.70;;
5616;SDS011;2830;50.656;7.568;2023-03-13T15:00:28;9.20;;;0.70;;
5616;SDS011;2830;50.656;7.568;2023-03-13T15:03:18;9.27;;;0.67;;
5616;SDS011;2830;50.656;7.568;2023-03-13T15:06:06;9.23;;;0.70;;
5616;SDS011;2830;50.656;7.568;2023-03-13T15:08:42;9.50;;;0.80;;
5616;SDS011;2830;50.656;7.568;2023-03-13T15:11:21;12.20;;;0.80;;
5616;SDS011;2830;50.656;7.568;2023-03-13T15:13:54;9.67;;;0.87;;
5616;SDS011;2830;50.656;7.568;2023-03-13T15:16:22;11.30;;;0.70;;
5616;SDS011;2830;50.656;7.568;2023-03-13T15:18:51;9.43;;;0.80;;
5616;SDS011;2830;50.656;7.568;2023-03-13T15:23:49;9.93;;;0.70;;
5616;SDS011;2830;50.656;7.568;2023-03-13T15:26:25;8.27;;;0.60;;
5616;SDS011;2830;50.656;7.568;2023-03-13T15:28:52;8.80;;;0.70;;
5616;SDS011;2830;50.656;7.568;2023-03-13T15:31:20;9.27;;;0.83;;
5616;SDS011;2830;50.656;7.568;2023-03-13T15:33:53;8.07;;;0.60;;
5616;SDS011;2830;50.656;7.568;2023-03-13T15:36:22;8.43;;;0.70;;
5616;SDS011;2830;50.656;7.568;2023-03-13T15:38:50;9.10;;;0.70;;
5616;SDS011;2830;50.656;7.568;2023-03-13T15:41:17;10.07;;;0.70;;
5616;SDS011;2830;50.656;7.568;2023-03-13T15:43:45;8.50;;;0.60;;
5616;SDS011;2830;50.656;7.568;2023-03-13T15:46:12;8.50;;;0.90;;
5616;SDS011;2830;50.656;7.568;2023-03-13T15:48:42;8.73;;;0.70;;
5616;SDS011;2830;50.656;7.568;2023-03-13T15:51:09;8.13;;;0.60;;
5616;SDS011;2830;50.656;7.568;2023-03-13T15:53:39;15.33;;;1.73;;
5616;SDS011;2830;50.656;7.568;2023-03-13T15:56:19;9.20;;;0.87;;
5616;SDS011;2830;50.656;7.568;2023-03-13T15:58:48;8.90;;;0.80;;
5616;SDS011;2830;50.656;7.568;2023-03-13T16:01:17;9.47;;;1.03;;
5616;SDS011;2830;50.656;7.568;2023-03-13T16:03:44;8.80;;;0.80;;
5616;SDS011;2830;50.656;7.568;2023-03-13T16:06:15;9.43;;;1.17;;
5616;SDS011;2830;50.656;7.568;2023-03-13T16:08:45;10.03;;;2.07;;
5616;SDS011;2830;50.656;7.568;2023-03-13T16:11:13;9.40;;;0.93;;
5616;SDS011;2830;50.656;7.568;2023-03-13T16:13:41;9.53;;;1.57;;
5616;SDS011;2830;50.656;7.568;2023-03-13T16:16:19;10.40;;;2.40;;
5616;SDS011;2830;50.656;7.568;2023-03-13T16:18:48;9.20;;;1.00;;
5616;SDS011;2830;50.656;7.568;2023-03-13T16:21:17;9.00;;;0.90;;
5616;SDS011;2830;50.656;7.568;2023-03-13T16:23:54;9.40;;;0.80;;
5616;SDS011;2830;50.656;7.568;2023-03-13T16:26:22;9.73;;;1.00;;
5616;SDS011;2830;50.656;7.568;2023-03-13T16:28:51;13.60;;;2.17;;
5616;SDS011;2830;50.656;7.568;2023-03-13T16:31:20;11.63;;;1.00;;
5616;SDS011;2830;50.656;7.568;2023-03-13T16:33:48;11.63;;;1.10;;
5616;SDS011;2830;50.656;7.568;2023-03-13T16:36:20;8.47;;;0.80;;
5616;SDS011;2830;50.656;7.568;2023-03-13T16:38:49;8.80;;;0.80;;
5616;SDS011;2830;50.656;7.568;2023-03-13T16:41:18;11.30;;;1.00;;
5616;SDS011;2830;50.656;7.568;2023-03-13T16:43:47;8.70;;;0.90;;
5616;SDS011;2830;50.656;7.568;2023-03-13T16:46:18;9.50;;;1.30;;
5616;SDS011;2830;50.656;7.568;2023-03-13T16:48:47;9.43;;;1.20;;
5616;SDS011;2830;50.656;7.568;2023-03-13T16:51:19;11.40;;;1.20;;
5616;SDS011;2830;50.656;7.568;2023-03-13T16:53:47;9.20;;;1.10;;
5616;SDS011;2830;50.656;7.568;2023-03-13T16:58:55;11.30;;;1.30;;
5616;SDS011;2830;50.656;7.568;2023-03-13T17:01:23;9.90;;;1.30;;
5616;SDS011;2830;50.656;7.568;2023-03-13T17:03:51;28.57;;;11.20;;
5616;SDS011;2830;50.656;7.568;2023-03-13T17:06:20;8.70;;;0.90;;
5616;SDS011;2830;50.656;7.568;2023-03-13T17:08:48;9.97;;;1.00;;
5616;SDS011;2830;50.656;7.568;2023-03-13T17:11:16;9.40;;;1.40;;
5616;SDS011;2830;50.656;7.568;2023-03-13T17:13:45;8.93;;;1.03;;